sensor_id;sensor_type;location;lat;lon;timestamp;pressure;altitude;pressure_sealevel;temperature;humidity
13734;BME280;43298;52.560;13.508;2023-04-27T00:00:23;101217.69;;;7.18;100.00
13734;BME280;43298;52.560;13.508;2023-04-27T00:02:49;101221.94;;;7.19;100.00
13734;BME280;43298;52.560;13.508;2023-04-27T00:05:15;101210.00;;;7.17;100.00
13734;BME280;43298;52.560;13.508;2023-04-27T00:07:41;101207.47;;;7.15;100.00
13734;BME280;43298;52.560;13.508;2023-04-27T00:10:08;101213.47;;;7.16;100.00
13734;BME280;43298;52.560;13.508;2023-04-27T00:12:33;101211.78;;;7.15;100.00
13734;BME280;43298;52.560;13.508;2023-04-27T00:14:59;101211.00;;;7.10;100.00
13734;BME280;43298;52.560;13.508;2023-04-27T00:17:25;101203.31;;;7.08;100.00
13734;BME280;43298;52.560;13.508;2023-04-27T00:19:51;101203.34;;;7.07;100.00
13734;BME280;43298;52.560;13.508;2023-04-27T00:22:18;101205.88;;;7.08;100.00
13734;BME280;43298;52.560;13.508;2023-04-27T00:24:44;101202.47;;;7.09;100.00
13734;BME280;43298;52.560;13.508;2023-04-27T00:27:09;101204.25;;;7.04;100.00
13734;BME280;43298;52.560;13.508;2023-04-27T00:29:38;101201.69;;;7.04;100.00
13734;BME280;43298;52.560;13.508;2023-04-27T00:32:09;101206.81;;;7.06;100.00
13734;BME280;43298;52.560;13.508;2023-04-27T00:34:35;101206.03;;;7.02;100.00
13734;BME280;43298;52.560;13.508;2023-04-27T00:37:01;101200.88;;;7.02;100.00
13734;BME280;43298;52.560;13.508;2023-04-27T00:39:27;101206.09;;;6.99;100.00
13734;BME280;43298;52.560;13.508;2023-04-27T00:41:52;101213.81;;;6.99;100.00
13734;BME280;43298;52.560;13.508;2023-04-27T00:44:25;101209.66;;;6.92;100.00
13734;BME280;43298;52.560;13.508;2023-04-27T00:46:52;101213.94;;;6.92;100.00
13734;BME280;43298;52.560;13.508;2023-04-27T00:49:19;101205.41;;;6.91;100.00
13734;BME280;43298;52.560;13.508;2023-04-27T00:51:47;101208.03;;;6.88;100.00
13734;BME280;43298;52.560;13.508;2023-04-27T00:54:15;101220.03;;;6.86;100.00
13734;BME280;43298;52.560;13.508;2023-04-27T00:56:43;101214.94;;;6.83;100.00
13734;BME280;43298;52.560;13.508;2023-04-27T00:59:09;101223.53;;;6.82;100.00
13734;BME280;43298;52.560;13.508;2023-04-27T01:01:35;101224.44;;;6.81;100.00
13734;BME280;43298;52.560;13.508;2023-04-27T01:04:01;101218.47;;;6.78;100.00
13734;BME280;43298;52.560;13.508;2023-04-27T01:06:27;101219.41;;;6.74;100.00
13734;BME280;43298;52.560;13.508;2023-04-27T01:08:54;101218.47;;;6.79;100.00
13734;BME280;43298;52.560;13.508;2023-04-27T01:11:20;101219.34;;;6.78;100.00
13734;BME280;43298;52.560;13.508;2023-04-27T01:13:46;101226.19;;;6.78;100.00
13734;BME280;43298;52.560;13.508;2023-04-27T01:16:12;101222.81;;;6.76;100.00
13734;BME280;43298;52.560;13.508;2023-04-27T01:18:38;101222.88;;;6.73;100.00
13734;BME280;43298;52.560;13.508;2023-04-27T01:21:05;101222.00;;;6.74;100.00
13734;BME280;43298;52.560;13.508;2023-04-27T01:23:31;101225.44;;;6.73;100.00
13734;BME280;43298;52.560;13.508;2023-04-27T01:25:57;101216.88;;;6.72;100.00
13734;BME280;43298;52.560;13.508;2023-04-27T01:28:23;101228.00;;;6.73;100.00
13734;BME280;43298;52.560;13.508;2023-04-27T01:30:49;101223.78;;;6.70;100.00
13734;BME280;43298;52.560;13.508;2023-04-27T01:33:15;101227.19;;;6.71;100.00
13734;BME280;43298;52.560;13.508;2023-04-27T01:35:41;101235.75;;;6.71;100.00
13734;BME280;43298;52.560;13.508;2023-04-27T01:38:07;101228.94;;;6.69;100.00
13734;BME280;43298;52.560;13.508;2023-04-27T01:40:32;101240.03;;;6.71;100.00
13734;BME280;43298;52.560;13.508;2023-04-27T01:42:58;101243.47;;;6.70;100.00
13734;BME280;43298;52.560;13.508;2023-04-27T01:45:24;101244.41;;;6.67;100.00
13734;BME280;43298;52.560;13.508;2023-04-27T01:47:51;101245.31;;;6.65;100.00
13734;BME280;43298;52.560;13.508;2023-04-27T01:50:17;101242.72;;;6.66;100.00
13734;BME280;43298;52.560;13.508;2023-04-27T01:52:43;101247.09;;;6.60;100.00
13734;BME280;43298;52.560;13.508;2023-04-27T01:55:09;101242.00;;;6.57;100.00
13734;BME280;43298;52.560;13.508;2023-04-27T01:57:35;101249.69;;;6.58;100.00
13734;BME280;43298;52.560;13.508;2023-04-27T02:00:01;101248.84;;;6.58;100.00
13734;BME280;43298;52.560;13.508;2023-04-27T02:02:27;101242.91;;;6.53;100.00
13734;BME280;43298;52.560;13.508;2023-04-27T02:04:53;101251.56;;;6.49;100.00
13734;BME280;43298;52.560;13.508;2023-04-27T02:07:18;101255.00;;;6.49;100.00
13734;BME280;43298;52.560;13.508;2023-04-27T02:09:44;101254.19;;;6.44;100.00
13734;BME280;43298;52.560;13.508;2023-04-27T02:12:10;101250.81;;;6.42;100.00
13734;BME280;43298;52.560;13.508;2023-04-27T02:14:36;101255.13;;;6.40;100.00
13734;BME280;43298;52.560;13.508;2023-04-27T02:17:01;101252.56;;;6.40;100.00
13734;BME280;43298;52.560;13.508;2023-04-27T02:19:28;101257.75;;;6.37;100.00
13734;BME280;43298;52.560;13.508;2023-04-27T02:21:53;101255.19;;;6.36;100.00
13734;BME280;43298;52.560;13.508;2023-04-27T02:24:19;101263.72;;;6.39;100.00
13734;BME280;43298;52.560;13.508;2023-04-27T02:26:45;101261.16;;;6.38;100.00
13734;BME280;43298;52.560;13.508;2023-04-27T02:29:11;101267.22;;;6.34;100.00
13734;BME280;43298;52.560;13.508;2023-04-27T02:31:37;101261.25;;;6.32;100.00
13734;BME280;43298;52.560;13.508;2023-04-27T02:34:02;101269.78;;;6.34;100.00
13734;BME280;43298;52.560;13.508;2023-04-27T02:36:28;101264.72;;;6.29;100.00
13734;BME280;43298;52.560;13.508;2023-04-27T02:38:54;101267.25;;;6.32;100.00
13734;BME280;43298;52.560;13.508;2023-04-27T02:41:20;101264.69;;;6.32;100.00
13734;BME280;43298;52.560;13.508;2023-04-27T02:43:46;101266.50;;;6.26;100.00
13734;BME280;43298;52.560;13.508;2023-04-27T02:46:12;101264.00;;;6.21;100.00
13734;BME280;43298;52.560;13.508;2023-04-27T02:48:38;101276.84;;;6.21;100.00
13734;BME280;43298;52.560;13.508;2023-04-27T02:51:04;101268.25;;;6.22;100.00
13734;BME280;43298;52.560;13.508;2023-04-27T02:53:30;101270.03;;;6.18;100.00
13734;BME280;43298;52.560;13.508;2023-04-27T02:55:56;101266.56;;;6.22;100.00
13734;BME280;43298;52.560;13.508;2023-04-27T02:58:23;101279.41;;;6.21;100.00
13734;BME280;43298;52.560;13.508;2023-04-27T03:00:54;101281.09;;;6.22;100.00
13734;BME280;43298;52.560;13.508;2023-04-27T03:03:21;101283.66;;;6.23;100.00
13734;BME280;43298;52.560;13.508;2023-04-27T03:05:47;101284.53;;;6.21;100.00
13734;BME280;43298;52.560;13.508;2023-04-27T03:08:13;101286.28;;;6.19;100.00
13734;BME280;43298;52.560;13.508;2023-04-27T03:10:38;101276.91;;;6.16;100.00
13734;BME280;43298;52.560;13.508;2023-04-27T03:13:04;101285.44;;;6.18;100.00
13734;BME280;43298;52.560;13.508;2023-04-27T03:15:30;101284.63;;;6.15;100.00
13734;BME280;43298;52.560;13.508;2023-04-27T03:17:56;101280.34;;;6.15;100.00
13734;BME280;43298;52.560;13.508;2023-04-27T03:20:22;101290.59;;;6.18;100.00
13734;BME280;43298;52.560;13.508;2023-04-27T03:22:48;101281.13;;;6.19;100.00
13734;BME280;43298;52.560;13.508;2023-04-27T03:25:14;101289.75;;;6.15;100.00
13734;BME280;43298;52.560;13.508;2023-04-27T03:27:40;101282.06;;;6.15;100.00
13734;BME280;43298;52.560;13.508;2023-04-27T03:30:07;101292.34;;;6.13;100.00
13734;BME280;43298;52.560;13.508;2023-04-27T03:32:34;101291.53;;;6.13;100.00
13734;BME280;43298;52.560;13.508;2023-04-27T03:35:00;101296.66;;;6.13;100.00
13734;BME280;43298;52.560;13.508;2023-04-27T03:37:26;101300.06;;;6.12;100.00
13734;BME280;43298;52.560;13.508;2023-04-27T03:39:52;101305.28;;;6.09;100.00
13734;BME280;43298;52.560;13.508;2023-04-27T03:42:17;101306.94;;;6.11;100.00
13734;BME280;43298;52.560;13.508;2023-04-27T03:44:43;101307.84;;;6.09;100.00
13734;BME280;43298;52.560;13.508;2023-04-27T03:47:09;101308.72;;;6.06;100.00
13734;BME280;43298;52.560;13.508;2023-04-27T03:49:35;101307.84;;;6.09;100.00
13734;BME280;43298;52.560;13.508;2023-04-27T03:52:01;101304.44;;;6.07;100.00
13734;BME280;43298;52.560;13.508;2023-04-27T03:54:29;101313.94;;;6.02;100.00
13734;BME280;43298;52.560;13.508;2023-04-27T03:56:55;101313.03;;;6.04;100.00
13734;BME280;43298;52.560;13.508;2023-04-27T03:59:21;101312.13;;;6.07;100.00
13734;BME280;43298;52.560;13.508;2023-04-27T04:01:47;101312.13;;;6.07;100.00
13734;BME280;43298;52.560;13.508;2023-04-27T04:04:12;101314.69;;;6.08;100.00
13734;BME280;43298;52.560;13.508;2023-04-27T04:06:38;101317.22;;;6.10;100.00
13734;BME280;43298;52.560;13.508;2023-04-27T04:09:04;101329.22;;;6.08;100.00
13734;BME280;43298;52.560;13.508;2023-04-27T04:11:30;101320.56;;;6.15;100.00
13734;BME280;43298;52.560;13.508;2023-04-27T04:13:56;101323.13;;;6.16;100.00
13734;BME280;43298;52.560;13.508;2023-04-27T04:16:21;101333.38;;;6.16;100.00
13734;BME280;43298;52.560;13.508;2023-04-27T04:18:47;101330.00;;;6.14;100.00
13734;BME280;43298;52.560;13.508;2023-04-27T04:21:13;101337.59;;;6.20;100.00
13734;BME280;43298;52.560;13.508;2023-04-27T04:23:39;101339.38;;;6.18;100.00
13734;BME280;43298;52.560;13.508;2023-04-27T04:26:08;101340.06;;;6.30;100.00
13734;BME280;43298;52.560;13.508;2023-04-27T04:28:34;101345.19;;;6.30;100.00
13734;BME280;43298;52.560;13.508;2023-04-27T04:31:00;101340.88;;;6.30;100.00
13734;BME280;43298;52.560;13.508;2023-04-27T04:33:26;101343.44;;;6.30;100.00
13734;BME280;43298;52.560;13.508;2023-04-27T04:35:52;101336.59;;;6.32;100.00
13734;BME280;43298;52.560;13.508;2023-04-27T04:38:19;101349.34;;;6.38;100.00
13734;BME280;43298;52.560;13.508;2023-04-27T04:40:45;101340.75;;;6.39;100.00
13734;BME280;43298;52.560;13.508;2023-04-27T04:43:11;101344.97;;;6.43;100.00
13734;BME280;43298;52.560;13.508;2023-04-27T04:45:37;101347.56;;;6.42;100.00
13734;BME280;43298;52.560;13.508;2023-04-27T04:48:03;101350.06;;;6.46;100.00
13734;BME280;43298;52.560;13.508;2023-04-27T04:50:29;101352.47;;;6.55;100.00
13734;BME280;43298;52.560;13.508;2023-04-27T04:52:55;101352.47;;;6.55;100.00
13734;BME280;43298;52.560;13.508;2023-04-27T04:55:21;101348.94;;;6.62;100.00
13734;BME280;43298;52.560;13.508;2023-04-27T04:57:47;101354.03;;;6.65;100.00
13734;BME280;43298;52.560;13.508;2023-04-27T05:00:13;101358.34;;;6.66;100.00
13734;BME280;43298;52.560;13.508;2023-04-27T05:02:40;101356.47;;;6.74;100.00
13734;BME280;43298;52.560;13.508;2023-04-27T05:05:06;101356.47;;;6.76;100.00
13734;BME280;43298;52.560;13.508;2023-04-27T05:07:32;101365.06;;;6.73;100.00
13734;BME280;43298;52.560;13.508;2023-04-27T05:09:58;101368.41;;;6.78;100.00
13734;BME280;43298;52.560;13.508;2023-04-27T05:14:52;101362.31;;;6.84;100.00
13734;BME280;43298;52.560;13.508;2023-04-27T05:17:17;101364.88;;;6.84;100.00
13734;BME280;43298;52.560;13.508;2023-04-27T05:19:43;101366.50;;;6.89;100.00
13734;BME280;43298;52.560;13.508;2023-04-27T05:22:09;101371.34;;;7.07;100.00
13734;BME280;43298;52.560;13.508;2023-04-27T05:24:35;101369.47;;;7.15;100.00
13734;BME280;43298;52.560;13.508;2023-04-27T05:27:01;101372.09;;;7.12;100.00
13734;BME280;43298;52.560;13.508;2023-04-27T05:29:28;101372.09;;;7.12;100.00
13734;BME280;43298;52.560;13.508;2023-04-27T05:31:53;101370.44;;;7.08;100.00
13734;BME280;43298;52.560;13.508;2023-04-27T05:34:19;101364.44;;;7.11;100.00
13734;BME280;43298;52.560;13.508;2023-04-27T05:36:45;101366.72;;;7.26;100.00
13734;BME280;43298;52.560;13.508;2023-04-27T05:39:14;101368.31;;;7.33;100.00
13734;BME280;43298;52.560;13.508;2023-04-27T05:41:40;101368.94;;;7.45;100.00
13734;BME280;43298;52.560;13.508;2023-04-27T05:44:06;101366.69;;;7.27;100.00
13734;BME280;43298;52.560;13.508;2023-04-27T05:46:32;101376.72;;;7.41;100.00
13734;BME280;43298;52.560;13.508;2023-04-27T05:48:58;101374.03;;;7.48;100.00
13734;BME280;43298;52.560;13.508;2023-04-27T05:51:24;101372.19;;;7.53;100.00
13734;BME280;43298;52.560;13.508;2023-04-27T05:53:51;101380.88;;;7.49;100.00
13734;BME280;43298;52.560;13.508;2023-04-27T05:56:20;101380.06;;;7.46;100.00
13734;BME280;43298;52.560;13.508;2023-04-27T05:58:46;101376.34;;;7.60;100.00
13734;BME280;43298;52.560;13.508;2023-04-27T06:01:12;101379.97;;;7.50;100.00
13734;BME280;43298;52.560;13.508;2023-04-27T06:03:38;101379.25;;;7.44;100.00
13734;BME280;43298;52.560;13.508;2023-04-27T06:06:04;101386.94;;;7.45;100.00
13734;BME280;43298;52.560;13.508;2023-04-27T06:08:30;101387.03;;;7.39;100.00
13734;BME280;43298;52.560;13.508;2023-04-27T06:10:56;101394.13;;;7.28;100.00
13734;BME280;43298;52.560;13.508;2023-04-27T06:13:22;101397.63;;;8.12;100.00
13734;BME280;43298;52.560;13.508;2023-04-27T06:15:48;101395.06;;;8.11;100.00
13734;BME280;43298;52.560;13.508;2023-04-27T06:18:13;101403.19;;;7.91;100.00
13734;BME280;43298;52.560;13.508;2023-04-27T06:20:39;101399.94;;;8.24;100.00
13734;BME280;43298;52.560;13.508;2023-04-27T06:23:06;101393.88;;;8.65;100.00
13734;BME280;43298;52.560;13.508;2023-04-27T06:25:32;101395.84;;;8.54;100.00
13734;BME280;43298;52.560;13.508;2023-04-27T06:27:59;101405.00;;;8.29;100.00
13734;BME280;43298;52.560;13.508;2023-04-27T06:30:25;101402.63;;;8.17;100.00
13734;BME280;43298;52.560;13.508;2023-04-27T06:32:51;101403.84;;;8.01;100.00
13734;BME280;43298;52.560;13.508;2023-04-27T06:35:17;101403.28;;;7.87;100.00
13734;BME280;43298;52.560;13.508;2023-04-27T06:37:44;101401.88;;;7.71;100.00
13734;BME280;43298;52.560;13.508;2023-04-27T06:40:11;101405.56;;;8.00;100.00
13734;BME280;43298;52.560;13.508;2023-04-27T06:42:37;101405.97;;;7.81;100.00
13734;BME280;43298;52.560;13.508;2023-04-27T06:45:04;101404.00;;;8.36;100.00
13734;BME280;43298;52.560;13.508;2023-04-27T06:47:30;101402.13;;;8.79;100.00
13734;BME280;43298;52.560;13.508;2023-04-27T06:49:56;101398.75;;;8.75;100.00
13734;BME280;43298;52.560;13.508;2023-04-27T06:52:22;101403.06;;;8.76;100.00
13734;BME280;43298;52.560;13.508;2023-04-27T06:54:47;101401.78;;;8.92;100.00
13734;BME280;43298;52.560;13.508;2023-04-27T06:57:13;101404.47;;;9.23;100.00
13734;BME280;43298;52.560;13.508;2023-04-27T06:59:39;101399.31;;;9.23;100.00
13734;BME280;43298;52.560;13.508;2023-04-27T07:02:06;101395.97;;;9.19;100.00
13734;BME280;43298;52.560;13.508;2023-04-27T07:04:32;101412.69;;;9.37;100.00
13734;BME280;43298;52.560;13.508;2023-04-27T07:06:58;101406.25;;;9.21;100.00
13734;BME280;43298;52.560;13.508;2023-04-27T07:09:24;101404.44;;;8.89;100.00
13734;BME280;43298;52.560;13.508;2023-04-27T07:11:50;101401.38;;;9.09;100.00
13734;BME280;43298;52.560;13.508;2023-04-27T07:14:16;101405.44;;;9.51;100.00
13734;BME280;43298;52.560;13.508;2023-04-27T07:16:41;101403.47;;;9.61;98.20
13734;BME280;43298;52.560;13.508;2023-04-27T07:19:09;101401.25;;;9.78;99.89
13734;BME280;43298;52.560;13.508;2023-04-27T07:21:35;101412.47;;;10.09;97.73
13734;BME280;43298;52.560;13.508;2023-04-27T07:24:01;101409.16;;;10.33;97.34
13734;BME280;43298;52.560;13.508;2023-04-27T07:26:28;101412.91;;;9.92;95.85
13734;BME280;43298;52.560;13.508;2023-04-27T07:28:56;101407.91;;;10.46;96.67
13734;BME280;43298;52.560;13.508;2023-04-27T07:31:22;101404.66;;;10.67;93.20
13734;BME280;43298;52.560;13.508;2023-04-27T07:33:48;101404.22;;;11.06;94.56
13734;BME280;43298;52.560;13.508;2023-04-27T07:36:14;101400.31;;;10.40;94.15
13734;BME280;43298;52.560;13.508;2023-04-27T07:38:40;101402.81;;;10.43;93.96
13734;BME280;43298;52.560;13.508;2023-04-27T07:41:06;101398.75;;;10.89;91.83
13734;BME280;43298;52.560;13.508;2023-04-27T07:43:33;101397.88;;;10.89;87.67
13734;BME280;43298;52.560;13.508;2023-04-27T07:46:00;101401.44;;;10.86;89.09
13734;BME280;43298;52.560;13.508;2023-04-27T07:48:26;101402.13;;;10.91;89.85
13734;BME280;43298;52.560;13.508;2023-04-27T07:50:53;101404.03;;;10.59;88.49
13734;BME280;43298;52.560;13.508;2023-04-27T07:53:19;101413.03;;;10.47;92.31
13734;BME280;43298;52.560;13.508;2023-04-27T07:55:46;101420.09;;;10.42;88.16
13734;BME280;43298;52.560;13.508;2023-04-27T07:58:11;101422.19;;;10.30;88.24
13734;BME280;43298;52.560;13.508;2023-04-27T08:00:37;101417.78;;;10.03;88.12
13734;BME280;43298;52.560;13.508;2023-04-27T08:03:03;101426.09;;;10.14;88.67
13734;BME280;43298;52.560;13.508;2023-04-27T08:05:29;101419.78;;;10.24;88.40
13734;BME280;43298;52.560;13.508;2023-04-27T08:07:55;101419.13;;;10.45;88.41
13734;BME280;43298;52.560;13.508;2023-04-27T08:10:21;101417.00;;;10.85;87.18
13734;BME280;43298;52.560;13.508;2023-04-27T08:12:48;101413.34;;;10.64;86.13
13734;BME280;43298;52.560;13.508;2023-04-27T08:15:14;101414.03;;;10.69;87.86
13734;BME280;43298;52.560;13.508;2023-04-27T08:17:40;101416.22;;;11.84;85.52
13734;BME280;43298;52.560;13.508;2023-04-27T08:20:07;101420.53;;;12.30;83.39
13734;BME280;43298;52.560;13.508;2023-04-27T08:22:40;101416.75;;;11.69;81.28
13734;BME280;43298;52.560;13.508;2023-04-27T08:25:08;101421.59;;;10.77;78.86
13734;BME280;43298;52.560;13.508;2023-04-27T08:27:40;101425.72;;;10.55;83.45
13734;BME280;43298;52.560;13.508;2023-04-27T08:30:06;101428.50;;;10.20;83.72
13734;BME280;43298;52.560;13.508;2023-04-27T08:32:33;101426.00;;;10.17;83.29
13734;BME280;43298;52.560;13.508;2023-04-27T08:34:59;101429.22;;;10.81;83.21
13734;BME280;43298;52.560;13.508;2023-04-27T08:37:24;101420.03;;;10.97;82.73
13734;BME280;43298;52.560;13.508;2023-04-27T08:39:50;101422.00;;;11.41;82.71
13734;BME280;43298;52.560;13.508;2023-04-27T08:42:16;101420.69;;;11.30;81.71
13734;BME280;43298;52.560;13.508;2023-04-27T08:44:43;101420.69;;;11.04;79.71
13734;BME280;43298;52.560;13.508;2023-04-27T08:47:09;101419.78;;;10.51;80.70
13734;BME280;43298;52.560;13.508;2023-04-27T08:49:36;101422.00;;;10.05;82.61
13734;BME280;43298;52.560;13.508;2023-04-27T08:52:16;101440.44;;;9.63;84.88
13734;BME280;43298;52.560;13.508;2023-04-27T08:54:42;101436.72;;;9.73;85.12
13734;BME280;43298;52.560;13.508;2023-04-27T08:57:17;101440.88;;;9.78;88.52
13734;BME280;43298;52.560;13.508;2023-04-27T08:59:43;101429.13;;;9.67;85.67
13734;BME280;43298;52.560;13.508;2023-04-27T09:02:20;101436.94;;;9.64;87.30
13734;BME280;43298;52.560;13.508;2023-04-27T09:04:45;101435.81;;;10.06;86.64
13734;BME280;43298;52.560;13.508;2023-04-27T09:07:15;101427.31;;;10.59;82.83
13734;BME280;43298;52.560;13.508;2023-04-27T09:09:43;101426.56;;;11.84;81.77
13734;BME280;43298;52.560;13.508;2023-04-27T09:12:17;101419.00;;;12.47;80.17
13734;BME280;43298;52.560;13.508;2023-04-27T09:15:01;101415.75;;;11.22;76.41
13734;BME280;43298;52.560;13.508;2023-04-27T09:17:31;101431.44;;;10.92;77.16
13734;BME280;43298;52.560;13.508;2023-04-27T09:20:10;101429.78;;;10.63;74.99
13734;BME280;43298;52.560;13.508;2023-04-27T09:22:48;101427.88;;;10.41;74.75
13734;BME280;43298;52.560;13.508;2023-04-27T09:25:28;101426.06;;;10.43;75.79
13734;BME280;43298;52.560;13.508;2023-04-27T09:27:56;101423.97;;;10.55;76.06
13734;BME280;43298;52.560;13.508;2023-04-27T09:30:23;101423.34;;;10.75;78.21
13734;BME280;43298;52.560;13.508;2023-04-27T09:33:00;101424.91;;;10.80;80.85
13734;BME280;43298;52.560;13.508;2023-04-27T09:35:31;101424.72;;;10.86;81.74
13734;BME280;43298;52.560;13.508;2023-04-27T09:37:58;101415.63;;;11.01;81.13
13734;BME280;43298;52.560;13.508;2023-04-27T09:40:28;101411.53;;;11.70;77.13
13734;BME280;43298;52.560;13.508;2023-04-27T09:42:58;101408.94;;;11.70;74.95
13734;BME280;43298;52.560;13.508;2023-04-27T09:45:26;101411.06;;;11.58;75.03
13734;BME280;43298;52.560;13.508;2023-04-27T09:47:52;101411.03;;;11.59;76.86
13734;BME280;43298;52.560;13.508;2023-04-27T09:50:18;101415.34;;;11.08;72.17
13734;BME280;43298;52.560;13.508;2023-04-27T09:52:45;101415.00;;;10.93;74.37
13734;BME280;43298;52.560;13.508;2023-04-27T09:55:17;101403.28;;;11.09;77.63
13734;BME280;43298;52.560;13.508;2023-04-27T10:00:54;101394.66;;;12.93;69.31
13734;BME280;43298;52.560;13.508;2023-04-27T10:09:11;101401.06;;;10.71;74.31
13734;BME280;43298;52.560;13.508;2023-04-27T10:11:42;101397.25;;;10.82;74.29
13734;BME280;43298;52.560;13.508;2023-04-27T10:14:16;101392.38;;;10.99;74.00
13734;BME280;43298;52.560;13.508;2023-04-27T10:19:17;101398.81;;;11.12;73.60
13734;BME280;43298;52.560;13.508;2023-04-27T10:22:00;101394.41;;;11.66;76.96
13734;BME280;43298;52.560;13.508;2023-04-27T10:24:40;101396.97;;;12.57;75.00
13734;BME280;43298;52.560;13.508;2023-04-27T10:27:09;101401.16;;;13.44;75.54
13734;BME280;43298;52.560;13.508;2023-04-27T10:29:38;101399.41;;;14.03;69.63
13734;BME280;43298;52.560;13.508;2023-04-27T10:32:07;101388.75;;;14.63;66.29
13734;BME280;43298;52.560;13.508;2023-04-27T10:34:34;101389.50;;;15.01;66.56
13734;BME280;43298;52.560;13.508;2023-04-27T10:37:08;101386.06;;;14.65;62.61
13734;BME280;43298;52.560;13.508;2023-04-27T10:39:38;101381.75;;;13.33;63.19
13734;BME280;43298;52.560;13.508;2023-04-27T10:42:05;101390.41;;;12.70;65.51
13734;BME280;43298;52.560;13.508;2023-04-27T10:44:34;101393.56;;;11.89;66.20
13734;BME280;43298;52.560;13.508;2023-04-27T10:47:13;101385.72;;;11.67;67.69
13734;BME280;43298;52.560;13.508;2023-04-27T10:49:40;101389.44;;;11.59;68.56
13734;BME280;43298;52.560;13.508;2023-04-27T10:52:06;101392.72;;;11.15;69.02
13734;BME280;43298;52.560;13.508;2023-04-27T10:54:32;101383.16;;;11.17;69.83
13734;BME280;43298;52.560;13.508;2023-04-27T10:57:09;101384.34;;;11.07;70.75
13734;BME280;43298;52.560;13.508;2023-04-27T10:59:51;101384.34;;;11.07;69.38
13734;BME280;43298;52.560;13.508;2023-04-27T11:02:25;101392.75;;;12.76;68.45
13734;BME280;43298;52.560;13.508;2023-04-27T11:04:51;101382.72;;;13.10;65.99
13734;BME280;43298;52.560;13.508;2023-04-27T11:07:27;101377.31;;;12.73;66.66
13734;BME280;43298;52.560;13.508;2023-04-27T11:09:54;101382.91;;;12.41;66.15
13734;BME280;43298;52.560;13.508;2023-04-27T11:12:20;101384.59;;;12.21;66.48
13734;BME280;43298;52.560;13.508;2023-04-27T11:14:46;101388.97;;;12.18;67.62
13734;BME280;43298;52.560;13.508;2023-04-27T11:17:12;101390.00;;;12.14;67.33
13734;BME280;43298;52.560;13.508;2023-04-27T11:19:47;101394.09;;;11.74;67.56
13734;BME280;43298;52.560;13.508;2023-04-27T11:22:14;101393.19;;;11.50;68.16
13734;BME280;43298;52.560;13.508;2023-04-27T11:24:51;101387.34;;;11.45;68.20
13734;BME280;43298;52.560;13.508;2023-04-27T11:27:18;101391.13;;;11.11;68.30
13734;BME280;43298;52.560;13.508;2023-04-27T11:29:46;101396.16;;;11.15;68.54
13734;BME280;43298;52.560;13.508;2023-04-27T11:32:22;101402.28;;;10.87;68.77
13734;BME280;43298;52.560;13.508;2023-04-27T11:34:50;101398.69;;;10.91;69.12
13734;BME280;43298;52.560;13.508;2023-04-27T11:37:24;101400.09;;;11.01;69.66
13734;BME280;43298;52.560;13.508;2023-04-27T11:39:54;101398.69;;;10.91;69.25
13734;BME280;43298;52.560;13.508;2023-04-27T11:42:26;101399.28;;;10.99;69.04
13734;BME280;43298;52.560;13.508;2023-04-27T11:45:02;101411.53;;;11.20;69.08
13734;BME280;43298;52.560;13.508;2023-04-27T11:47:31;101416.34;;;11.55;68.61
13734;BME280;43298;52.560;13.508;2023-04-27T11:50:05;101417.84;;;11.86;68.05
13734;BME280;43298;52.560;13.508;2023-04-27T11:52:34;101422.09;;;11.87;64.91
13734;BME280;43298;52.560;13.508;2023-04-27T11:55:02;101419.72;;;12.29;66.84
13734;BME280;43298;52.560;13.508;2023-04-27T11:57:34;101407.22;;;13.03;64.16
13734;BME280;43298;52.560;13.508;2023-04-27T12:00:04;101419.25;;;13.86;63.10
13734;BME280;43298;52.560;13.508;2023-04-27T12:02:36;101416.81;;;14.75;56.05
13734;BME280;43298;52.560;13.508;2023-04-27T12:05:03;101415.47;;;14.85;54.78
13734;BME280;43298;52.560;13.508;2023-04-27T12:07:29;101408.72;;;14.98;52.53
13734;BME280;43298;52.560;13.508;2023-04-27T12:09:55;101416.84;;;15.09;55.83
13734;BME280;43298;52.560;13.508;2023-04-27T12:12:21;101423.69;;;13.44;56.44
13734;BME280;43298;52.560;13.508;2023-04-27T12:14:51;101429.84;;;13.01;59.29
13734;BME280;43298;52.560;13.508;2023-04-27T12:17:17;101426.97;;;12.43;59.86
13734;BME280;43298;52.560;13.508;2023-04-27T12:19:43;101420.78;;;12.24;60.20
13734;BME280;43298;52.560;13.508;2023-04-27T12:22:09;101425.97;;;12.00;61.49
13734;BME280;43298;52.560;13.508;2023-04-27T12:24:35;101420.38;;;11.88;63.44
13734;BME280;43298;52.560;13.508;2023-04-27T12:27:02;101432.56;;;11.61;64.35
13734;BME280;43298;52.560;13.508;2023-04-27T12:29:29;101428.00;;;11.68;66.87
13734;BME280;43298;52.560;13.508;2023-04-27T12:31:58;101429.97;;;12.09;66.01
13734;BME280;43298;52.560;13.508;2023-04-27T12:34:24;101426.13;;;11.96;65.20
13734;BME280;43298;52.560;13.508;2023-04-27T12:36:50;101426.34;;;12.13;66.54
13734;BME280;43298;52.560;13.508;2023-04-27T12:39:19;101429.41;;;12.24;66.66
13734;BME280;43298;52.560;13.508;2023-04-27T12:41:46;101424.88;;;12.74;64.19
13734;BME280;43298;52.560;13.508;2023-04-27T12:44:14;101433.66;;;12.70;63.95
13734;BME280;43298;52.560;13.508;2023-04-27T12:46:41;101436.59;;;12.39;62.36
13734;BME280;43298;52.560;13.508;2023-04-27T12:49:08;101431.72;;;12.53;63.09
13734;BME280;43298;52.560;13.508;2023-04-27T12:51:35;101422.97;;;13.20;62.19
13734;BME280;43298;52.560;13.508;2023-04-27T12:54:05;101436.94;;;12.75;62.18